Time;durP1;ratioP1;P1;durP2;ratioP2;P2;SDS_P1;SDS_P2;PMS_P1;PMS_P2;Temp;Humidity;BMP_temperature;BMP_pressure;BME280_temperature;BME280_humidity;BME280_pressure;Samples;Min_cycle;Max_cycle;Signal;HPM_P1;HPM_P2
2021/11/18 00:00:10;;;;;;;22.95;2.95;;;;;;;18.66;41.40;101542.94;4433813;32;20029;-70
2021/11/18 00:02:36;;;;;;;19.55;3.03;;;;;;;18.47;41.45;101562.06;4431504;32;20102;-70
2021/11/18 00:05:03;;;;;;;20.80;3.75;;;;;;;18.37;41.55;101539.72;4433472;32;20022;-70
2021/11/18 00:07:29;;;;;;;18.58;3.03;;;;;;;18.64;41.28;101539.75;4431994;32;20801;-70
2021/11/18 00:09:55;;;;;;;14.45;2.37;;;;;;;18.47;41.29;101533.56;4433560;32;20463;-70
2021/11/18 00:12:21;;;;;;;20.42;2.50;;;;;;;18.87;40.75;101537.03;4433429;32;20065;-70
2021/11/18 00:14:47;;;;;;;19.52;3.03;;;;;;;19.05;40.36;101530.53;4420226;32;20165;-70
2021/11/18 00:17:12;;;;;;;17.42;3.28;;;;;;;19.11;40.28;101534.31;4418360;32;20090;-70
2021/11/18 00:19:38;;;;;;;12.75;3.15;;;;;;;18.63;41.29;101524.72;4418958;32;20083;-70
2021/11/18 00:22:04;;;;;;;18.02;3.00;;;;;;;18.99;40.53;101538.16;4418242;32;20100;-70
2021/11/18 00:24:29;;;;;;;20.12;2.97;;;;;;;19.21;40.13;101530.19;4423599;32;20143;-70
2021/11/18 00:26:55;;;;;;;25.17;4.15;;;;;;;19.22;40.18;101543.19;4420670;32;20081;-70
2021/11/18 00:29:22;;;;;;;21.40;3.75;;;;;;;19.21;40.12;101553.03;4423311;32;20038;-70
2021/11/18 00:31:48;;;;;;;19.90;3.45;;;;;;;19.16;40.34;101539.38;4424259;32;20111;-70
2021/11/18 00:34:13;;;;;;;19.58;2.80;;;;;;;18.66;41.41;101531.53;4421582;32;20474;-70
2021/11/18 00:36:39;;;;;;;22.80;3.53;;;;;;;18.71;41.35;101525.97;4418540;32;20493;-70
2021/11/18 00:39:06;;;;;;;18.58;2.87;;;;;;;18.53;41.84;101508.88;4422054;32;20520;-70
2021/11/18 00:41:33;;;;;;;23.77;3.67;;;;;;;18.73;41.59;101502.69;4423506;32;21506;-70
2021/11/18 00:44:00;;;;;;;23.27;3.10;;;;;;;18.51;42.15;101505.72;4422896;32;20053;-70
2021/11/18 00:46:28;;;;;;;21.30;3.37;;;;;;;18.48;42.02;101495.25;4424601;32;20044;-70
2021/11/18 00:48:54;;;;;;;16.02;2.45;;;;;;;18.34;42.42;101507.25;4422705;32;20104;-70
2021/11/18 00:51:20;;;;;;;14.18;2.67;;;;;;;18.04;43.16;101513.84;4425573;32;20170;-70
2021/11/18 00:53:52;;;;;;;13.80;3.05;;;;;;;18.50;42.45;101514.75;4422410;32;20088;-70
2021/11/18 00:56:21;;;;;;;11.75;2.37;;;;;;;18.28;42.72;101525.47;4422071;32;20087;-70
2021/11/18 00:58:49;;;;;;;14.98;2.55;;;;;;;18.55;42.28;101534.84;4425040;32;20067;-70
2021/11/18 01:01:15;;;;;;;14.87;2.55;;;;;;;18.32;42.84;101523.25;4423572;32;20505;-70
2021/11/18 01:03:42;;;;;;;21.50;3.40;;;;;;;18.69;41.97;101528.53;4419633;32;20045;-70
2021/11/18 01:06:07;;;;;;;16.98;2.55;;;;;;;18.35;42.66;101528.00;4421308;32;20077;-70
2021/11/18 01:08:33;;;;;;;14.80;2.70;;;;;;;18.78;41.63;101522.00;4422624;32;20427;-70
2021/11/18 01:11:06;;;;;;;12.52;2.45;;;;;;;19.08;41.04;101540.97;4424166;32;20026;-70
2021/11/18 01:13:33;;;;;;;17.45;2.60;;;;;;;19.49;40.46;101534.56;4422808;32;20034;-70
2021/11/18 01:16:00;;;;;;;20.83;2.83;;;;;;;19.35;40.68;101515.25;4421879;32;20121;-70
2021/11/18 01:18:26;;;;;;;16.73;2.53;;;;;;;19.19;41.01;101518.44;4420452;32;20108;-70
2021/11/18 01:20:54;;;;;;;17.87;2.97;;;;;;;18.85;41.58;101515.97;4420529;32;20022;-70
2021/11/18 01:23:25;;;;;;;11.82;2.40;;;;;;;18.85;41.71;101513.12;4419496;32;20041;-70
2021/11/18 01:25:50;;;;;;;17.50;2.30;;;;;;;18.89;41.58;101499.47;4419566;32;20112;-70
2021/11/18 01:28:16;;;;;;;17.65;2.97;;;;;;;18.90;41.47;101516.13;4423626;32;20434;-70
2021/11/18 01:30:43;;;;;;;19.60;3.05;;;;;;;18.96;41.40;101522.78;4420579;32;20077;-70
2021/11/18 01:33:13;;;;;;;13.30;2.60;;;;;;;19.03;41.53;101521.66;4423331;32;20069;-70
2021/11/18 01:35:41;;;;;;;15.25;2.58;;;;;;;19.21;41.42;101530.97;4422575;32;20056;-70
2021/11/18 01:38:08;;;;;;;21.35;2.80;;;;;;;18.75;42.36;101526.59;4420337;32;20616;-70
2021/11/18 01:40:38;;;;;;;17.60;2.78;;;;;;;18.44;42.94;101525.19;4421497;32;20111;-70
2021/11/18 01:43:07;;;;;;;20.33;2.78;;;;;;;18.54;43.04;101524.72;4423408;32;20162;-70
2021/11/18 01:45:34;;;;;;;21.20;2.37;;;;;;;18.64;42.99;101534.03;4424657;32;20073;-70
2021/11/18 01:48:00;;;;;;;18.58;2.55;;;;;;;18.58;43.00;101545.31;4421416;32;20074;-70
2021/11/18 01:50:29;;;;;;;19.62;2.60;;;;;;;18.89;42.26;101550.81;4422409;32;20422;-70
2021/11/18 01:52:55;;;;;;;9.20;2.10;;;;;;;18.78;42.81;101537.03;4421173;32;20067;-70
2021/11/18 01:55:23;;;;;;;17.98;2.70;;;;;;;18.56;43.51;101544.97;4419527;32;20053;-70
2021/11/18 01:57:50;;;;;;;18.70;2.87;;;;;;;18.35;44.10;101516.59;4422042;32;20070;-70
2021/11/18 02:00:25;;;;;;;18.33;2.58;;;;;;;17.80;45.31;101512.84;4423369;32;20077;-70
2021/11/18 02:02:51;;;;;;;13.05;2.50;;;;;;;18.25;44.71;101512.16;4415447;32;20720;-70
2021/11/18 02:07:55;;;;;;;14.98;3.35;;;;;;;18.35;44.44;101510.91;3977804;32;15121552;-70
2021/11/18 02:10:29;;;;;;;12.80;2.65;;;;;;;18.23;44.80;101506.12;4435853;32;20077;-70
2021/11/18 02:12:56;;;;;;;16.60;2.72;;;;;;;18.13;45.22;101496.78;4438921;32;20090;-70
2021/11/18 02:15:30;;;;;;;16.10;3.03;;;;;;;18.19;45.15;101522.59;4433900;32;20050;-70
2021/11/18 02:17:57;;;;;;;12.50;2.65;;;;;;;18.61;44.33;101515.84;4428702;32;20108;-70
2021/11/18 02:20:27;;;;;;;15.05;2.20;;;;;;;18.87;43.84;101513.44;4432555;32;20021;-70
2021/11/18 02:22:54;;;;;;;17.85;2.22;;;;;;;19.00;43.28;101511.22;4430968;32;20108;-70
2021/11/18 02:25:25;;;;;;;16.95;2.35;;;;;;;18.94;43.48;101504.56;4433771;32;20438;-70
2021/11/18 02:27:50;;;;;;;15.40;2.20;;;;;;;19.27;42.93;101511.94;4432762;32;20414;-70
2021/11/18 02:30:16;;;;;;;17.85;2.58;;;;;;;19.36;42.43;101517.63;4433177;32;20049;-70
2021/11/18 02:32:43;;;;;;;20.62;2.50;;;;;;;19.57;42.23;101501.53;4433746;32;20070;-70
2021/11/18 02:35:18;;;;;;;15.10;2.40;;;;;;;19.61;42.17;101520.06;4434797;32;20129;-70
2021/11/18 02:37:44;;;;;;;9.98;2.20;;;;;;;20.21;41.13;101539.94;4429683;32;20096;-70
2021/11/18 02:40:11;;;;;;;13.93;2.00;;;;;;;19.85;41.87;101540.12;4436444;32;20550;-70
2021/11/18 02:42:38;;;;;;;14.05;2.45;;;;;;;20.17;41.50;101545.06;4433760;32;20092;-70
2021/11/18 02:45:09;;;;;;;9.68;2.60;;;;;;;20.22;41.18;101538.66;4436797;32;20083;-70
2021/11/18 02:47:34;;;;;;;12.75;2.50;;;;;;;20.42;41.14;101547.44;4433303;32;20025;-70
2021/11/18 02:50:00;;;;;;;11.98;3.17;;;;;;;20.10;41.66;101551.13;4432187;32;20413;-70
2021/11/18 02:52:29;;;;;;;11.50;2.30;;;;;;;20.06;41.68;101553.34;4437123;32;20079;-70
2021/11/18 02:54:58;;;;;;;10.35;2.05;;;;;;;20.25;41.71;101540.56;4433439;32;20073;-70
2021/11/18 02:57:24;;;;;;;12.85;1.83;;;;;;;20.06;42.29;101541.13;4433171;32;20419;-70
2021/11/18 02:59:50;;;;;;;13.65;2.20;;;;;;;19.93;42.49;101529.94;4432126;32;20049;-70
2021/11/18 03:02:16;;;;;;;14.20;2.05;;;;;;;19.70;42.86;101528.59;4431194;32;20037;-71
2021/11/18 03:04:42;;;;;;;14.35;2.03;;;;;;;19.72;42.84;101530.97;4433335;32;20348;-71
2021/11/18 03:07:08;;;;;;;19.15;2.53;;;;;;;19.39;43.40;101524.47;4430650;32;20089;-71
2021/11/18 03:09:34;;;;;;;19.10;2.90;;;;;;;19.26;43.83;101533.22;4432664;32;20034;-71
2021/11/18 03:12:01;;;;;;;19.35;3.22;;;;;;;19.01;44.36;101532.75;4430936;32;20093;-71
2021/11/18 03:14:28;;;;;;;22.33;2.55;;;;;;;19.38;43.58;101546.50;4433646;32;20017;-71
2021/11/18 03:16:54;;;;;;;16.33;2.40;;;;;;;19.42;43.43;101566.31;4432307;32;20388;-71
2021/11/18 03:19:20;;;;;;;15.45;2.28;;;;;;;19.14;43.95;101553.31;4420726;32;20134;-71
2021/11/18 03:21:46;;;;;;;19.62;3.03;;;;;;;19.26;43.85;101543.78;4424376;32;20054;-71
2021/11/18 03:24:12;;;;;;;11.88;2.33;;;;;;;19.21;43.87;101536.66;4420872;32;20454;-71
2021/11/18 03:26:38;;;;;;;15.27;2.90;;;;;;;18.92;44.59;101530.72;4422952;32;20081;-71
2021/11/18 03:29:05;;;;;;;16.55;2.40;;;;;;;18.79;44.86;101515.84;4424974;32;20493;-71
2021/11/18 03:31:31;;;;;;;16.48;3.17;;;;;;;19.14;44.33;101510.53;4422191;32;20079;-71
2021/11/18 03:34:04;;;;;;;16.75;2.50;;;;;;;18.84;44.97;101495.22;4419214;32;20026;-71
2021/11/18 03:36:30;;;;;;;19.83;3.25;;;;;;;18.70;45.93;101500.78;4420802;32;20041;-71
2021/11/18 03:38:57;;;;;;;18.87;3.22;;;;;;;18.31;46.97;101505.34;4419986;32;20146;-71
2021/11/18 03:41:26;;;;;;;15.95;2.97;;;;;;;18.37;47.04;101502.69;4423278;32;20040;-71
2021/11/18 03:43:55;;;;;;;12.35;2.53;;;;;;;18.51;46.72;101493.50;4422353;32;20309;-71
2021/11/18 03:46:26;;;;;;;24.30;2.67;;;;;;;18.37;47.27;101497.78;4423857;32;20042;-71
2021/11/18 03:48:53;;;;;;;13.55;2.30;;;;;;;18.20;47.92;101493.63;4420439;32;20036;-71
2021/11/18 03:51:19;;;;;;;13.27;2.58;;;;;;;17.89;49.06;101498.66;4422510;32;20129;-71
2021/11/18 03:53:45;;;;;;;17.60;1.92;;;;;;;18.01;48.75;101494.06;4421004;32;20070;-71
2021/11/18 03:56:16;;;;;;;15.43;2.05;;;;;;;17.82;49.27;101494.03;4418778;32;20138;-71
2021/11/18 03:58:42;;;;;;;16.23;2.45;;;;;;;17.99;49.67;101490.87;4421932;32;20072;-71
2021/11/18 04:01:09;;;;;;;20.35;2.47;;;;;;;17.77;50.29;101499.56;4420228;32;20136;-71
2021/11/18 04:03:34;;;;;;;8.70;2.58;;;;;;;17.99;49.98;101497.41;4422540;32;20042;-71
2021/11/18 04:06:02;;;;;;;14.95;3.33;;;;;;;17.97;50.05;101491.37;4418891;32;20045;-71
2021/11/18 04:08:29;;;;;;;17.23;2.37;;;;;;;17.94;50.02;101491.53;4417384;32;20072;-71
2021/11/18 04:10:55;;;;;;;10.65;2.22;;;;;;;18.11;49.29;101490.78;4422805;32;20068;-71
2021/11/18 04:13:21;;;;;;;16.98;2.25;;;;;;;18.24;49.20;101490.59;4423544;32;20030;-71
2021/11/18 04:15:49;;;;;;;19.50;3.17;;;;;;;18.56;48.14;101485.09;4424148;32;20025;-71
2021/11/18 04:18:17;;;;;;;13.70;2.40;;;;;;;18.71;47.88;101491.75;4420103;32;20096;-71
2021/11/18 04:20:44;;;;;;;13.43;2.50;;;;;;;18.80;47.65;101485.25;4422954;32;20068;-71
2021/11/18 04:23:10;;;;;;;13.57;2.00;;;;;;;18.65;47.72;101479.41;4424733;32;20100;-71
2021/11/18 04:25:37;;;;;;;13.90;2.05;;;;;;;18.53;48.08;101480.34;4419027;32;20371;-70
2021/11/18 04:28:04;;;;;;;17.87;2.60;;;;;;;19.10;47.06;101478.53;4419295;32;20356;-70
2021/11/18 04:30:35;;;;;;;13.27;2.10;;;;;;;18.96;47.26;101485.69;4425633;32;20442;-71
2021/11/18 04:33:01;;;;;;;14.30;2.37;;;;;;;19.08;47.18;101495.31;4422834;32;20463;-71
2021/11/18 04:35:27;;;;;;;16.58;2.67;;;;;;;18.91;47.45;101506.31;4424419;32;20079;-71
2021/11/18 04:37:53;;;;;;;13.10;2.28;;;;;;;18.75;47.63;101497.31;4422637;32;20086;-71
2021/11/18 04:40:19;;;;;;;14.68;2.25;;;;;;;18.87;47.30;101490.63;4422660;32;20128;-71
2021/11/18 04:42:45;;;;;;;15.30;2.33;;;;;;;18.92;47.66;101481.41;4421317;32;20492;-71
2021/11/18 04:45:14;;;;;;;13.05;2.05;;;;;;;18.85;47.82;101485.41;4425484;32;20090;-71
2021/11/18 04:47:41;;;;;;;8.80;1.95;;;;;;;19.29;47.15;101494.34;4420153;32;20025;-71
2021/11/18 04:50:11;;;;;;;12.57;2.10;;;;;;;19.50;46.39;101502.69;4424304;32;20066;-71
2021/11/18 04:52:38;;;;;;;9.27;1.67;;;;;;;19.76;46.00;101512.41;4422350;32;20481;-71
2021/11/18 04:55:06;;;;;;;11.60;2.30;;;;;;;19.88;45.52;101518.37;4419150;32;20121;-71
2021/11/18 04:57:31;;;;;;;8.95;1.92;;;;;;;20.01;45.40;101518.94;4422433;32;20021;-71
2021/11/18 04:59:58;;;;;;;18.15;1.70;;;;;;;19.96;45.08;101511.81;4419796;32;20118;-71
2021/11/18 05:02:24;;;;;;;10.43;2.10;;;;;;;19.94;45.29;101517.22;4419649;32;20060;-71
2021/11/18 05:04:52;;;;;;;8.95;1.40;;;;;;;20.26;44.86;101516.44;4420640;32;20067;-71
2021/11/18 05:07:19;;;;;;;8.98;1.92;;;;;;;20.42;44.56;101509.47;4421919;32;20195;-71
2021/11/18 05:09:46;;;;;;;8.43;2.28;;;;;;;20.39;44.67;101525.53;4423638;32;20088;-71
2021/11/18 05:12:12;;;;;;;12.52;2.28;;;;;;;20.50;44.74;101519.25;4417965;32;20038;-71
2021/11/18 05:14:41;;;;;;;8.63;3.10;;;;;;;20.53;44.83;101526.88;4417821;32;20058;-71
2021/11/18 05:17:08;;;;;;;8.02;2.60;;;;;;;20.74;44.25;101529.38;4416644;32;20370;-71
2021/11/18 05:19:33;;;;;;;10.77;3.10;;;;;;;20.68;44.58;101525.59;4421485;32;20112;-71
2021/11/18 05:21:59;;;;;;;8.75;3.78;;;;;;;20.58;44.75;101523.31;4426363;32;20057;-71
2021/11/18 05:24:25;;;;;;;12.80;4.30;;;;;;;20.72;44.43;101529.09;4424087;32;20037;-71
2021/11/18 05:26:50;;;;;;;8.07;3.95;;;;;;;20.80;44.33;101532.37;4416639;32;20109;-71
2021/11/18 05:29:18;;;;;;;7.78;3.47;;;;;;;20.75;44.59;101533.84;4419691;32;20052;-71
2021/11/18 05:31:43;;;;;;;11.20;3.58;;;;;;;20.78;44.43;101532.84;4420392;32;20464;-71
2021/11/18 05:34:09;;;;;;;8.75;3.90;;;;;;;20.61;44.67;101523.12;4420664;32;20405;-71
2021/11/18 05:36:35;;;;;;;7.78;3.28;;;;;;;20.47;45.19;101518.19;4424508;32;20049;-71
2021/11/18 05:39:03;;;;;;;8.10;2.28;;;;;;;20.41;45.31;101505.84;4423860;32;20299;-71
2021/11/18 05:41:28;;;;;;;7.12;1.73;;;;;;;20.30;45.84;101519.06;4422178;32;20095;-71
2021/11/18 05:44:01;;;;;;;5.55;1.60;;;;;;;20.12;46.19;101504.91;4421703;32;20423;-71
2021/11/18 05:46:27;;;;;;;5.45;1.42;;;;;;;19.91;46.65;101518.19;4416371;32;20132;-71
2021/11/18 05:48:52;;;;;;;7.72;0.90;;;;;;;19.70;47.38;101508.63;4416312;32;20467;-71
2021/11/18 05:51:18;;;;;;;9.45;1.25;;;;;;;19.35;48.33;101521.78;4423038;32;20495;-71
2021/11/18 05:53:46;;;;;;;3.47;1.02;;;;;;;19.39;48.16;101513.03;4422896;32;20594;-71
2021/11/18 05:56:15;;;;;;;5.57;0.75;;;;;;;19.64;48.07;101535.47;4420811;32;20029;-71
2021/11/18 05:58:43;;;;;;;7.35;1.08;;;;;;;19.55;48.36;101544.06;4422066;32;20038;-71
2021/11/18 06:01:10;;;;;;;5.68;0.80;;;;;;;19.76;48.00;101525.91;4419449;32;20030;-71
2021/11/18 06:03:37;;;;;;;5.25;1.48;;;;;;;19.80;47.95;101538.72;4423488;32;20064;-71
2021/11/18 06:06:03;;;;;;;5.87;1.15;;;;;;;20.04;47.33;101550.19;4422807;32;20092;-71
2021/11/18 06:08:28;;;;;;;7.80;1.08;;;;;;;20.09;47.47;101548.75;4418503;32;20077;-71
2021/11/18 06:10:54;;;;;;;6.57;0.70;;;;;;;20.23;46.88;101563.13;4420551;32;20421;-71
2021/11/18 06:13:22;;;;;;;8.27;1.45;;;;;;;20.37;46.47;101548.09;4419592;32;20384;-71
2021/11/18 06:15:48;;;;;;;5.18;0.80;;;;;;;20.53;46.54;101550.53;4419120;32;20056;-71
2021/11/18 06:18:14;;;;;;;6.37;0.93;;;;;;;20.43;46.68;101533.94;4420304;32;20574;-71
2021/11/18 06:20:40;;;;;;;5.47;1.00;;;;;;;20.43;46.38;101531.84;4420043;32;20074;-71
2021/11/18 06:23:07;;;;;;;4.95;1.33;;;;;;;20.11;47.50;101540.47;4422645;32;20061;-71
2021/11/18 06:25:35;;;;;;;4.82;1.37;;;;;;;19.96;47.74;101528.97;4417991;32;20073;-71
2021/11/18 06:28:01;;;;;;;4.72;1.15;;;;;;;19.86;48.24;101532.34;4420810;32;20074;-71
2021/11/18 06:30:30;;;;;;;9.18;2.53;;;;;;;20.02;47.67;101538.44;4420377;32;20088;-71
2021/11/18 06:32:56;;;;;;;4.40;1.62;;;;;;;20.26;47.29;101539.28;4420750;32;20359;-71
2021/11/18 06:35:22;;;;;;;4.25;1.75;;;;;;;20.19;47.15;101553.94;4417656;32;20022;-71
2021/11/18 06:37:49;;;;;;;3.85;1.75;;;;;;;20.40;46.73;101566.38;4419205;32;20056;-71
2021/11/18 06:40:16;;;;;;;8.77;2.33;;;;;;;20.76;45.87;101571.78;4418096;32;20073;-71
2021/11/18 06:42:44;;;;;;;5.07;2.17;;;;;;;20.58;46.19;101569.06;4421898;32;20033;-71
2021/11/18 06:45:14;;;;;;;5.50;2.00;;;;;;;20.82;45.91;101579.22;4420411;32;20399;-71
2021/11/18 06:47:39;;;;;;;8.82;2.22;;;;;;;21.05;45.30;101578.41;4418197;32;20125;-71
2021/11/18 06:50:06;;;;;;;8.43;2.72;;;;;;;20.84;45.52;101567.28;4421030;32;20074;-71
2021/11/18 06:52:32;;;;;;;5.47;1.70;;;;;;;20.93;45.45;101561.47;4422965;32;20555;-71
2021/11/18 06:54:57;;;;;;;3.72;1.30;;;;;;;20.76;45.86;101555.44;4423707;32;20021;-71
2021/11/18 06:57:23;;;;;;;4.20;1.00;;;;;;;20.70;45.79;101553.72;4422799;32;20060;-71
2021/11/18 06:59:50;;;;;;;4.72;1.30;;;;;;;20.53;46.31;101550.53;4422414;32;20534;-71
2021/11/18 07:02:16;;;;;;;9.02;1.40;;;;;;;20.54;46.48;101551.31;4423092;32;20097;-71
2021/11/18 07:04:45;;;;;;;4.43;1.60;;;;;;;20.48;46.93;101554.06;4423082;32;20081;-71
2021/11/18 07:07:11;;;;;;;5.15;1.83;;;;;;;20.47;47.00;101552.50;4420434;32;20050;-71
2021/11/18 07:09:37;;;;;;;3.60;1.62;;;;;;;20.23;47.64;101557.41;4424587;32;20094;-71
2021/11/18 07:12:08;;;;;;;8.27;2.05;;;;;;;20.34;47.52;101551.94;4424772;32;20064;-71
2021/11/18 07:14:36;;;;;;;6.05;1.52;;;;;;;20.17;48.21;101553.62;4422840;32;20052;-71
2021/11/18 07:17:04;;;;;;;5.07;1.73;;;;;;;19.98;48.86;101555.00;4421546;32;20467;-71
2021/11/18 07:19:31;;;;;;;4.05;1.60;;;;;;;19.54;49.66;101545.31;4423957;32;20149;-71
2021/11/18 07:21:57;;;;;;;3.70;1.40;;;;;;;19.77;49.40;101551.13;4425625;32;20141;-72
2021/11/18 07:24:24;;;;;;;4.35;1.30;;;;;;;19.69;49.32;101560.50;4420685;32;20034;-72
2021/11/18 07:26:49;;;;;;;6.57;1.33;;;;;;;19.75;49.38;101555.72;4419628;32;20188;-72
2021/11/18 07:29:15;;;;;;;4.20;1.62;;;;;;;19.77;49.43;101553.19;4424602;32;20077;-72
2021/11/18 07:31:41;;;;;;;1.92;1.37;;;;;;;19.79;49.21;101540.00;4422521;32;20426;-72
2021/11/18 07:34:07;;;;;;;3.22;1.95;;;;;;;19.80;49.52;101537.94;4424207;32;20098;-72
2021/11/18 07:36:33;;;;;;;4.32;1.85;;;;;;;19.76;49.21;101543.81;4422905;32;20061;-72
2021/11/18 07:38:59;;;;;;;7.20;1.80;;;;;;;19.49;50.22;101535.34;4420958;32;20026;-72
2021/11/18 07:41:26;;;;;;;3.72;2.40;;;;;;;19.61;50.22;101550.72;4416459;32;20095;-72
2021/11/18 07:43:52;;;;;;;5.37;2.60;;;;;;;19.80;49.83;101543.66;4422071;32;20033;-72
2021/11/18 07:46:18;;;;;;;8.38;2.97;;;;;;;19.80;49.70;101540.78;4416736;32;20100;-72
2021/11/18 07:48:46;;;;;;;8.95;2.80;;;;;;;19.71;50.51;101540.84;4415928;32;20042;-72
2021/11/18 07:51:14;;;;;;;7.62;3.15;;;;;;;20.01;49.91;101542.59;4408500;32;20451;-71
2021/11/18 07:53:44;;;;;;;3.35;2.97;;;;;;;20.06;49.97;101541.13;4415460;32;20112;-71
2021/11/18 07:56:11;;;;;;;4.15;3.55;;;;;;;19.95;50.63;101529.44;4413100;32;20693;-71
2021/11/18 07:58:37;;;;;;;4.35;3.00;;;;;;;20.16;50.37;101536.97;4409897;32;20100;-72
2021/11/18 08:01:04;;;;;;;5.85;3.83;;;;;;;19.81;51.14;101542.37;4410547;32;20124;-71
2021/11/18 08:03:30;;;;;;;8.75;5.05;;;;;;;19.68;51.86;101556.06;4417692;32;20068;-71
2021/11/18 08:05:58;;;;;;;6.20;4.93;;;;;;;19.88;51.51;101564.09;4415115;32;20127;-71
2021/11/18 08:08:24;;;;;;;7.87;5.53;;;;;;;20.55;49.85;101567.97;4413744;32;20126;-71
2021/11/18 08:10:50;;;;;;;8.30;5.50;;;;;;;20.59;49.51;101571.44;4414706;32;20128;-71
2021/11/18 08:13:16;;;;;;;8.13;5.93;;;;;;;21.02;48.38;101573.66;4415025;32;20072;-71
2021/11/18 08:15:42;;;;;;;9.27;5.62;;;;;;;20.95;48.79;101582.63;4414009;32;20146;-72
2021/11/18 08:18:08;;;;;;;7.50;5.10;;;;;;;21.01;48.58;101585.59;4417582;32;20062;-72
2021/11/18 08:20:34;;;;;;;5.53;4.00;;;;;;;21.02;48.49;101581.47;4413231;32;20089;-72
2021/11/18 08:23:00;;;;;;;4.07;3.30;;;;;;;21.02;48.57;101582.25;4414278;32;20080;-71
2021/11/18 08:25:29;;;;;;;5.05;2.97;;;;;;;21.09;48.44;101592.53;4413257;32;20041;-72
2021/11/18 08:27:55;;;;;;;4.72;3.05;;;;;;;21.28;47.86;101591.88;4412792;32;20093;-71
2021/11/18 08:30:25;;;;;;;3.45;3.15;;;;;;;21.47;47.69;101598.97;4416398;32;21404;-72
2021/11/18 08:32:54;;;;;;;5.05;3.20;;;;;;;21.50;47.57;101611.50;4416704;32;20076;-72
2021/11/18 08:35:26;;;;;;;5.80;3.25;;;;;;;21.68;47.24;101608.44;4417479;32;20963;-72
2021/11/18 08:37:52;;;;;;;4.70;3.42;;;;;;;21.67;47.23;101616.25;4418091;32;20096;-72
2021/11/18 08:40:18;;;;;;;4.28;3.28;;;;;;;21.86;46.54;101621.81;4418142;32;20238;-71
2021/11/18 08:42:46;;;;;;;6.30;3.53;;;;;;;22.18;46.00;101623.66;4416417;32;20103;-71
2021/11/18 08:45:12;;;;;;;4.12;3.10;;;;;;;22.19;45.66;101617.41;4416721;32;20070;-71
2021/11/18 08:47:39;;;;;;;5.50;3.90;;;;;;;22.29;45.70;101610.25;4414243;32;20037;-70
2021/11/18 08:50:12;;;;;;;9.20;5.45;;;;;;;21.79;46.67;101616.47;4414110;32;20434;-71
2021/11/18 08:52:39;;;;;;;6.15;4.20;;;;;;;22.06;46.15;101616.16;4416779;32;20054;-69
2021/11/18 08:55:11;;;;;;;5.12;4.60;;;;;;;21.98;46.25;101618.62;4412880;32;20241;-69
2021/11/18 08:57:38;;;;;;;9.27;6.62;;;;;;;22.17;46.06;101622.84;4417493;32;20907;-70
2021/11/18 09:00:11;;;;;;;8.73;6.68;;;;;;;21.68;47.06;101617.06;4412890;32;20061;-70
2021/11/18 09:02:37;;;;;;;7.22;5.82;;;;;;;22.31;45.67;101639.25;4416341;32;20061;-70
2021/11/18 09:05:03;;;;;;;7.93;4.97;;;;;;;22.12;45.73;101634.22;4418204;32;20394;-70
2021/11/18 09:07:30;;;;;;;6.30;4.37;;;;;;;22.50;45.21;101637.72;4411257;32;20097;-70
2021/11/18 09:09:57;;;;;;;5.10;3.70;;;;;;;22.48;44.91;101631.66;4413354;32;20093;-70
2021/11/18 09:12:26;;;;;;;6.37;3.67;;;;;;;23.32;43.62;101625.75;4416018;32;20033;-70
2021/11/18 09:14:53;;;;;;;5.82;4.15;;;;;;;23.46;42.90;101633.44;4415399;32;20041;-70
2021/11/18 09:17:19;;;;;;;4.18;3.70;;;;;;;23.59;42.68;101636.69;4415139;32;20073;-70
2021/11/18 09:19:46;;;;;;;6.05;5.22;;;;;;;23.17;43.56;101645.12;4415435;32;20031;-70
2021/11/18 09:22:13;;;;;;;5.12;4.53;;;;;;;22.53;44.82;101650.28;4418383;32;20066;-70
2021/11/18 09:24:44;;;;;;;6.07;4.70;;;;;;;22.74;44.78;101658.38;4419141;32;20407;-70
2021/11/18 09:27:14;;;;;;;5.43;3.90;;;;;;;23.31;43.68;101653.66;4417810;32;20180;-70
2021/11/18 09:29:41;;;;;;;6.40;3.85;;;;;;;22.94;44.40;101661.28;4419334;32;20530;-72
2021/11/18 09:32:07;;;;;;;5.80;3.75;;;;;;;22.83;44.65;101652.50;4419003;32;20060;-70
2021/11/18 09:34:34;;;;;;;4.57;3.80;;;;;;;23.42;43.52;101655.88;4416414;32;21771;-70
2021/11/18 09:37:00;;;;;;;7.60;3.28;;;;;;;23.38;43.55;101650.34;4413386;32;20082;-70
2021/11/18 09:39:27;;;;;;;7.25;2.72;;;;;;;23.40;43.17;101652.72;4414365;32;20053;-70
2021/11/18 09:42:01;;;;;;;4.60;2.80;;;;;;;23.19;43.61;101676.97;4415942;32;20136;-70
2021/11/18 09:53:18;;;;;;;5.97;2.62;;;;;;;23.36;43.68;101687.41;3976523;32;15025547;-71
2021/11/18 09:55:54;;;;;;;2.30;2.03;;;;;;;23.36;43.68;101687.41;4433834;32;20402;-70
2021/11/18 10:03:54;;;;;;;10.88;1.42;;;;;;;23.87;42.85;101680.87;3980653;32;15021716;-71
2021/11/18 10:06:27;;;;;;;4.40;1.30;;;;;;;23.87;42.85;101680.87;4433378;32;20466;-71
2021/11/18 10:09:16;;;;;;;4.72;1.15;;;;;;;23.25;43.39;101681.53;4431130;32;20458;-71
2021/11/18 10:22:41;;;;;;;1.42;0.30;;;;;;;24.49;40.83;101678.03;3954309;32;15733647;-71
2021/11/18 10:25:13;;;;;;;3.50;0.28;;;;;;;24.49;40.83;101678.03;4428712;32;20114;-72
2021/11/18 10:27:43;;;;;;;2.15;0.40;;;;;;;23.94;41.81;101677.56;4418329;32;20144;-71
2021/11/18 10:33:04;;;;;;;6.68;0.75;;;;;;;24.19;40.81;101679.62;3954491;32;15022866;-71
2021/11/18 10:46:45;;;;;;;3.75;0.30;;;;;;;25.03;39.20;101650.84;3984113;32;15033093;-72
2021/11/18 10:49:15;;;;;;;1.15;0.20;;;;;;;24.83;39.54;101656.00;4442637;32;20281;-71
2021/11/18 10:54:19;;;;;;;1.85;0.30;;;;;;;24.80;39.89;101643.44;3943709;32;15722379;-71
2021/11/18 10:57:02;;;;;;;0.70;0.20;;;;;;;24.80;39.89;101643.44;4415833;32;20078;-71
2021/11/18 10:59:40;;;;;;;0.60;0.10;;;;;;;24.60;39.92;101646.41;4414085;32;20061;-70
2021/11/18 11:02:30;;;;;;;0.65;0.13;;;;;;;24.97;39.10;101641.41;4416861;32;20094;-70
2021/11/18 11:05:00;;;;;;;0.77;0.20;;;;;;;24.92;39.10;101645.06;4413325;32;20088;-70
2021/11/18 11:07:42;;;;;;;0.20;0.10;;;;;;;26.02;37.59;101650.34;4411464;32;20111;-71
2021/11/18 11:10:15;;;;;;;2.75;0.30;;;;;;;26.22;36.46;101655.03;4414839;32;20123;-71
2021/11/18 11:16:07;;;;;;;1.92;0.10;;;;;;;27.09;35.24;101650.37;3978297;32;15022820;-71
2021/11/18 11:24:43;;;;;;;0.43;0.20;;;;;;;26.87;35.64;101656.22;3979019;32;15021887;-70
2021/11/18 11:29:52;;;;;;;1.08;0.15;;;;;;;26.25;36.77;101674.19;3948813;32;15726491;-71
2021/11/18 11:46:17;;;;;;;1.00;0.30;;;;;;;25.71;37.83;101632.47;3977114;32;15026157;-71
2021/11/18 11:49:00;;;;;;;0.93;0.28;;;;;;;25.71;37.83;101632.47;4432832;32;20033;-71
2021/11/18 11:52:06;;;;;;;1.12;0.52;;;;;;;25.19;38.61;101629.97;4435920;32;20509;-71
2021/11/18 12:00:29;;;;;;;9.07;0.60;;;;;;;24.36;40.66;101622.97;3956387;32;15023048;-71
2021/11/18 12:08:43;;;;;;;1.45;0.40;;;;;;;24.42;40.50;101618.06;3974208;32;15022737;-71
2021/11/18 12:16:55;;;;;;;2.30;0.50;;;;;;;23.33;43.29;101635.94;3967267;32;15025708;-71
2021/11/18 12:22:29;;;;;;;0.88;0.32;;;;;;;22.94;43.89;101644.06;3970243;32;15025818;-71
2021/11/18 12:27:37;;;;;;;3.22;0.43;;;;;;;22.81;44.35;101643.63;3969225;32;15033994;-72
2021/11/18 12:33:01;;;;;;;1.10;0.20;;;;;;;22.56;44.92;101620.56;3977787;32;15022275;-72
2021/11/18 12:38:41;;;;;;;1.00;0.60;;;;;;;22.77;44.46;101636.53;3974775;32;15023257;-71
2021/11/18 12:55:42;;;;;;;0.75;0.50;;;;;;;23.85;41.80;101653.94;3975360;32;15028179;-71
2021/11/18 12:58:30;;;;;;;;;;;;;;;23.85;41.80;101653.94;4428070;32;20085;-71
2021/11/18 13:01:00;;;;;;;5.25;0.77;;;;;;;23.71;41.99;101666.38;4429082;32;20390;-71
2021/11/18 13:09:14;;;;;;;5.55;1.37;;;;;;;23.39;43.42;101657.69;3985621;31;15017263;-71
2021/11/18 13:14:25;;;;;;;6.10;1.33;;;;;;;23.54;42.89;101669.06;3995070;31;15015549;-72
2021/11/18 13:19:53;;;;;;;4.62;1.90;;;;;;;23.39;43.34;101674.91;3949665;32;15740564;-71
2021/11/18 13:22:41;;;;;;;4.37;2.30;;;;;;;23.39;43.34;101674.91;4427980;32;20029;-71
2021/11/18 13:36:01;;;;;;;20.65;14.65;;;;;;;23.58;43.05;101666.75;3981382;32;15022834;-69
2021/11/18 13:38:31;;;;;;;19.52;12.45;;;;;;;23.58;43.05;101666.75;4446259;32;20402;-70